createdAt,value
2018-11-07T00:00:51.228Z,32.17
2018-11-07T00:03:22.233Z,32.83
2018-11-07T00:05:53.600Z,30.63
2018-11-07T00:08:24.798Z,30.10
2018-11-07T00:11:03.330Z,30.73
2018-11-07T00:13:35.247Z,30.97
2018-11-07T00:16:07.166Z,32.03
2018-11-07T00:18:39.201Z,32.60
2018-11-07T00:21:10.635Z,32.30
2018-11-07T00:23:42.546Z,30.40
2018-11-07T00:26:14.970Z,32.07
2018-11-07T00:28:47.565Z,30.97
2018-11-07T00:31:18.992Z,30.00
2018-11-07T00:33:50.433Z,30.57
2018-11-07T00:36:22.248Z,30.70
2018-11-07T00:38:54.419Z,32.37
2018-11-07T00:41:26.550Z,29.63
2018-11-07T00:43:58.504Z,30.77
2018-11-07T00:46:29.707Z,29.73
2018-11-07T00:49:01.579Z,30.17
2018-11-07T00:51:33.380Z,28.50
2018-11-07T00:54:04.781Z,28.60
2018-11-07T00:56:36.700Z,30.00
2018-11-07T00:59:07.730Z,31.07
2018-11-07T01:01:38.777Z,29.53
2018-11-07T01:04:10.650Z,30.20
2018-11-07T01:06:42.262Z,29.47
2018-11-07T01:09:13.911Z,30.57
2018-11-07T01:11:45.412Z,29.63
2018-11-07T01:14:16.851Z,29.53
2018-11-07T01:16:48.905Z,29.60
2018-11-07T01:19:20.739Z,28.23
2018-11-07T01:21:51.925Z,28.47
2018-11-07T01:24:23.885Z,28.10
2018-11-07T01:26:54.925Z,29.80
2018-11-07T01:29:26.977Z,28.07
2018-11-07T01:31:58.091Z,28.37
2018-11-07T01:34:30.010Z,29.70
2018-11-07T01:37:02.021Z,30.23
2018-11-07T01:39:33.090Z,29.97
2018-11-07T01:42:04.445Z,28.70
2018-11-07T01:44:35.330Z,28.63
2018-11-07T01:47:06.467Z,29.03
2018-11-07T01:49:39.157Z,29.63
2018-11-07T01:52:10.554Z,28.50
2018-11-07T01:54:41.925Z,29.10
2018-11-07T01:57:13.072Z,29.83
2018-11-07T01:59:44.533Z,27.87
2018-11-07T02:02:16.543Z,28.03
2018-11-07T02:04:47.577Z,27.90
2018-11-07T02:07:19.952Z,28.40
2018-11-07T02:09:51.802Z,27.57
2018-11-07T02:12:33.160Z,30.37
2018-11-07T02:15:04.222Z,30.40
2018-11-07T02:17:35.638Z,29.67
2018-11-07T02:20:07.468Z,28.40
2018-11-07T02:22:38.479Z,29.47
2018-11-07T02:25:10.562Z,28.90
2018-11-07T02:27:43.741Z,28.00
2018-11-07T02:30:17.014Z,26.83
2018-11-07T02:32:48.164Z,28.07
2018-11-07T02:35:19.220Z,28.17
2018-11-07T02:37:50.583Z,27.67
2018-11-07T02:40:22.415Z,28.37
2018-11-07T02:42:54.385Z,29.40
2018-11-07T02:45:25.396Z,28.63
2018-11-07T02:47:57.703Z,28.90
2018-11-07T02:50:29.512Z,27.37
2018-11-07T02:53:02.065Z,29.37
2018-11-07T02:55:33.565Z,26.80
2018-11-07T02:58:06.256Z,27.57
2018-11-07T03:00:39.173Z,27.70
2018-11-07T03:03:10.632Z,28.00
2018-11-07T03:05:42.056Z,27.93
2018-11-07T03:08:13.919Z,27.70
2018-11-07T03:10:46.473Z,28.13
2018-11-07T03:13:18.161Z,26.57
2018-11-07T03:15:49.684Z,27.13
2018-11-07T03:18:20.735Z,27.73
2018-11-07T03:20:52.687Z,28.53
2018-11-07T03:23:24.743Z,28.17
2018-11-07T03:25:55.869Z,28.13
2018-11-07T03:28:27.317Z,28.40
2018-11-07T03:30:58.725Z,27.77
2018-11-07T03:33:30.073Z,27.13
2018-11-07T03:36:02.024Z,29.03
2018-11-07T03:38:35.797Z,30.03
2018-11-07T03:41:06.881Z,28.70
2018-11-07T03:43:38.096Z,27.50
2018-11-07T03:46:09.094Z,25.73
2018-11-07T03:48:40.562Z,27.67
2018-11-07T03:51:11.746Z,30.40
2018-11-07T03:53:42.722Z,28.30
2018-11-07T03:56:13.826Z,27.80
2018-11-07T03:58:46.368Z,26.60
2018-11-07T04:01:18.281Z,27.93
2018-11-07T04:03:49.609Z,28.87
2018-11-07T04:06:21.485Z,26.63
2018-11-07T04:08:53.955Z,27.77
2018-11-07T04:11:25.390Z,27.40
2018-11-07T04:13:57.503Z,28.77
2018-11-07T04:16:29.570Z,27.70
2018-11-07T04:19:00.729Z,28.87
2018-11-07T04:21:33.491Z,28.67
2018-11-07T04:24:05.294Z,28.77
2018-11-07T04:26:37.496Z,26.73
2018-11-07T04:29:09.602Z,27.67
2018-11-07T04:31:41.751Z,25.93
2018-11-07T04:34:12.823Z,28.13
2018-11-07T04:36:43.895Z,26.83
2018-11-07T04:39:15.881Z,26.53
2018-11-07T04:41:47.214Z,28.93
2018-11-07T04:44:18.298Z,26.77
2018-11-07T04:46:49.340Z,25.90
2018-11-07T04:49:21.769Z,26.00
2018-11-07T04:51:54.706Z,25.63
2018-11-07T04:54:25.889Z,26.50
2018-11-07T04:56:57.303Z,25.83
2018-11-07T04:59:29.369Z,26.93
2018-11-07T05:02:00.903Z,26.33
2018-11-07T05:04:32.744Z,26.23
2018-11-07T05:07:04.142Z,26.87
2018-11-07T05:09:36.982Z,26.80
2018-11-07T05:12:08.273Z,25.50
2018-11-07T05:14:41.953Z,24.10
2018-11-07T05:17:13.338Z,25.27
2018-11-07T05:19:44.856Z,24.97
2018-11-07T05:22:17.182Z,26.03
2018-11-07T05:24:50.534Z,24.20
2018-11-07T05:27:22.033Z,23.80
2018-11-07T05:29:54.422Z,23.93
2018-11-07T05:32:26.899Z,25.13
2018-11-07T05:34:59.664Z,24.57
2018-11-07T05:37:32.585Z,23.50
2018-11-07T05:40:04.939Z,24.47
2018-11-07T05:42:36.412Z,24.87
2018-11-07T05:45:07.718Z,25.67
2018-11-07T05:47:39.006Z,25.80
2018-11-07T05:50:10.822Z,25.57
2018-11-07T05:52:44.860Z,24.73
2018-11-07T05:55:16.329Z,26.10
2018-11-07T05:57:48.108Z,26.03
2018-11-07T06:00:19.544Z,24.60
2018-11-07T06:02:51.882Z,25.03
2018-11-07T06:05:22.976Z,23.83
2018-11-07T06:07:54.767Z,26.90
2018-11-07T06:10:27.405Z,25.03
2018-11-07T06:12:59.185Z,25.87
2018-11-07T06:15:31.602Z,24.47
2018-11-07T06:18:02.672Z,25.50
2018-11-07T06:20:34.239Z,25.10
2018-11-07T06:23:05.361Z,24.90
2018-11-07T06:25:38.101Z,22.83
2018-11-07T06:28:10.079Z,23.73
2018-11-07T06:30:41.735Z,24.27
2018-11-07T06:33:12.824Z,24.07
2018-11-07T06:35:43.895Z,22.80
2018-11-07T06:38:16.417Z,22.63
2018-11-07T06:40:47.557Z,22.93
2018-11-07T06:43:18.923Z,24.37
2018-11-07T06:45:51.292Z,23.37
2018-11-07T06:48:24.673Z,23.13
2018-11-07T06:50:58.314Z,23.53
2018-11-07T06:53:31.240Z,22.87
2018-11-07T06:56:02.437Z,23.03
2018-11-07T06:58:33.883Z,23.17
2018-11-07T07:01:06.076Z,22.90
2018-11-07T07:03:37.281Z,23.17
2018-11-07T07:06:09.848Z,22.97
2018-11-07T07:08:41.378Z,22.93
2018-11-07T07:11:13.969Z,21.67
2018-11-07T07:13:45.021Z,21.53
2018-11-07T07:16:17.515Z,20.23
2018-11-07T07:18:49.443Z,19.47
2018-11-07T07:21:21.449Z,19.60
2018-11-07T07:23:53.936Z,18.63
2018-11-07T07:26:26.237Z,18.03
2018-11-07T07:29:00.324Z,17.77
2018-11-07T07:31:31.812Z,18.30
2018-11-07T07:34:03.243Z,19.93
2018-11-07T07:36:37.243Z,19.23
2018-11-07T07:39:08.050Z,20.17
2018-11-07T07:41:46.030Z,19.30
2018-11-07T07:44:19.039Z,22.17
2018-11-07T07:46:50.946Z,21.53
2018-11-07T07:49:24.045Z,22.63
2018-11-07T07:51:56.685Z,22.37
2018-11-07T07:54:37.556Z,22.83
2018-11-07T07:57:11.165Z,21.87
2018-11-07T07:59:42.176Z,24.53
2018-11-07T08:02:14.146Z,25.40
2018-11-07T08:04:45.325Z,22.27
2018-11-07T08:07:20.313Z,23.67
2018-11-07T08:09:49.545Z,23.13
2018-11-07T08:12:21.294Z,22.60
2018-11-07T08:14:52.339Z,24.17
2018-11-07T08:17:23.415Z,22.03
2018-11-07T08:19:55.100Z,24.47
2018-11-07T08:22:27.044Z,24.80
2018-11-07T08:24:58.164Z,23.63
2018-11-07T08:27:29.315Z,23.47
2018-11-07T08:30:01.440Z,26.63
2018-11-07T08:32:33.051Z,26.33
2018-11-07T08:35:04.586Z,29.00
2018-11-07T08:37:37.127Z,28.60
2018-11-07T08:40:13.713Z,25.23
2018-11-07T08:42:44.837Z,27.27
2018-11-07T08:45:16.247Z,26.03
2018-11-07T08:47:47.877Z,26.50
2018-11-07T08:50:21.485Z,26.63
2018-11-07T08:52:53.168Z,28.27
2018-11-07T08:55:24.964Z,25.37
2018-11-07T08:57:56.045Z,25.30
2018-11-07T09:00:27.107Z,25.43
2018-11-07T09:02:59.774Z,24.80
2018-11-07T09:05:30.836Z,25.87
2018-11-07T09:08:02.305Z,24.93
2018-11-07T09:10:35.070Z,26.40
2018-11-07T09:13:07.014Z,26.53
2018-11-07T09:15:38.095Z,25.07
2018-11-07T09:18:09.601Z,25.20
2018-11-07T09:20:40.652Z,24.50
2018-11-07T09:23:11.737Z,24.53
2018-11-07T09:25:43.614Z,25.13
2018-11-07T09:28:16.197Z,24.73
2018-11-07T09:30:47.219Z,23.00
2018-11-07T09:33:18.715Z,22.70
2018-11-07T09:38:22.505Z,22.03
2018-11-07T09:40:54.008Z,20.50
2018-11-07T09:43:25.089Z,20.57
2018-11-07T09:45:57.288Z,21.40
2018-11-07T09:48:28.359Z,18.70
2018-11-07T09:51:00.799Z,19.27
2018-11-07T09:53:31.946Z,17.00
2018-11-07T09:56:03.628Z,16.63
2018-11-07T09:58:35.432Z,15.73
2018-11-07T10:01:06.893Z,15.87
2018-11-07T10:03:38.160Z,12.80
2018-11-07T10:06:09.512Z,14.00
2018-11-07T10:08:40.680Z,13.07
2018-11-07T10:11:11.763Z,11.90
2018-11-07T10:13:42.849Z,11.47
2018-11-07T10:16:14.305Z,11.47
2018-11-07T10:18:47.784Z,10.90
2018-11-07T10:21:19.179Z,11.13
2018-11-07T10:23:51.481Z,11.70
2018-11-07T10:26:23.669Z,10.17
2018-11-07T10:28:56.420Z,10.57
2018-11-07T10:31:27.811Z,10.20
2018-11-07T10:34:00.339Z,9.30
2018-11-07T10:36:31.430Z,9.87
2018-11-07T10:39:03.653Z,9.90
2018-11-07T10:41:36.496Z,9.10
2018-11-07T10:44:08.632Z,8.63
2018-11-07T10:46:39.680Z,9.83
2018-11-07T10:49:11.311Z,7.27
2018-11-07T10:51:43.424Z,8.07
2018-11-07T10:54:15.435Z,7.47
2018-11-07T10:56:46.863Z,7.70
2018-11-07T10:59:18.543Z,7.80
2018-11-07T11:02:23.491Z,7.03
2018-11-07T11:04:54.604Z,7.53
2018-11-07T11:07:26.251Z,7.43
2018-11-07T11:09:58.379Z,7.40
2018-11-07T11:12:29.845Z,7.23
2018-11-07T11:15:01.716Z,7.23
2018-11-07T11:17:34.238Z,6.70
2018-11-07T11:20:05.934Z,7.43
2018-11-07T11:22:37.080Z,6.43
2018-11-07T11:25:09.359Z,6.70
2018-11-07T11:27:40.465Z,6.60
2018-11-07T11:30:12.692Z,5.83
2018-11-07T11:32:43.728Z,6.43
2018-11-07T11:35:14.881Z,5.73
2018-11-07T11:37:46.325Z,5.87
2018-11-07T11:40:17.389Z,5.40
2018-11-07T11:42:53.240Z,5.67
2018-11-07T11:45:24.360Z,5.07
2018-11-07T11:47:55.839Z,5.57
2018-11-07T11:50:27.087Z,4.77
2018-11-07T11:52:58.164Z,4.73
2018-11-07T11:55:29.197Z,5.33
2018-11-07T11:58:01.408Z,4.90
2018-11-07T12:00:32.520Z,5.00
2018-11-07T12:03:04.536Z,5.30
2018-11-07T12:05:36.499Z,4.90
2018-11-07T12:08:08.525Z,4.93
2018-11-07T12:10:39.695Z,4.47
2018-11-07T12:13:12.165Z,4.90
2018-11-07T12:15:45.391Z,4.30
2018-11-07T12:18:16.464Z,4.50
2018-11-07T12:20:47.551Z,5.20
2018-11-07T12:23:18.602Z,5.07
2018-11-07T12:25:49.685Z,4.43
2018-11-07T12:28:21.813Z,4.80
2018-11-07T12:30:53.267Z,4.53
2018-11-07T12:33:25.636Z,4.60
2018-11-07T12:35:58.288Z,4.17
2018-11-07T12:38:30.673Z,4.43
2018-11-07T12:41:01.804Z,5.03
2018-11-07T12:43:33.895Z,4.63
2018-11-07T12:46:06.230Z,4.77
2018-11-07T12:48:38.729Z,5.33
2018-11-07T12:51:11.104Z,5.10
2018-11-07T12:53:44.188Z,7.77
2018-11-07T12:56:15.283Z,4.83
2018-11-07T12:58:46.378Z,4.90
2018-11-07T13:01:19.577Z,5.27
2018-11-07T13:03:53.752Z,4.70
2018-11-07T13:06:24.978Z,4.50
2018-11-07T13:08:56.933Z,4.77
2018-11-07T13:11:28.072Z,5.07
2018-11-07T13:13:59.027Z,4.80
2018-11-07T13:16:31.159Z,5.00
2018-11-07T13:19:03.640Z,5.17
2018-11-07T13:21:34.661Z,5.80
2018-11-07T13:24:06.130Z,4.90
2018-11-07T13:26:38.474Z,6.37
2018-11-07T13:29:09.592Z,6.13
2018-11-07T13:31:41.107Z,5.90
2018-11-07T13:34:13.811Z,6.50
2018-11-07T13:36:46.347Z,5.90
2018-11-07T13:39:18.156Z,5.83
2018-11-07T13:41:48.891Z,6.00
2018-11-07T13:44:20.366Z,5.33
2018-11-07T13:46:51.509Z,5.10
2018-11-07T13:49:23.959Z,5.33
2018-11-07T13:51:54.975Z,5.40
2018-11-07T13:54:28.330Z,5.33
2018-11-07T13:57:00.338Z,5.83
2018-11-07T13:59:31.771Z,6.40
2018-11-07T14:02:03.694Z,5.97
2018-11-07T14:04:35.277Z,5.70
2018-11-07T14:07:07.074Z,5.50
2018-11-07T14:09:38.685Z,5.70
2018-11-07T14:12:10.062Z,5.20
2018-11-07T14:14:41.135Z,5.13
2018-11-07T14:17:12.274Z,5.07
2018-11-07T14:19:44.260Z,5.00
2018-11-07T14:22:16.679Z,4.93
2018-11-07T14:24:47.705Z,5.17
2018-11-07T14:27:18.934Z,4.90
2018-11-07T14:29:51.141Z,5.10
2018-11-07T14:32:22.264Z,4.63
2018-11-07T14:34:53.291Z,7.10
2018-11-07T14:37:24.826Z,5.53
2018-11-07T14:39:56.447Z,5.60
2018-11-07T14:42:28.435Z,5.03
2018-11-07T14:44:59.668Z,5.23
2018-11-07T14:47:30.731Z,4.97
2018-11-07T14:50:02.700Z,4.63
2018-11-07T14:52:35.021Z,4.77
2018-11-07T14:55:06.172Z,4.80
2018-11-07T14:57:37.318Z,5.07
2018-11-07T15:00:12.672Z,5.10
2018-11-07T15:02:44.435Z,5.20
2018-11-07T15:05:16.281Z,5.40
2018-11-07T15:07:49.864Z,5.00
2018-11-07T15:10:22.001Z,4.90
2018-11-07T15:12:53.062Z,4.87
2018-11-07T15:15:24.562Z,5.10
2018-11-07T15:17:57.752Z,5.27
2018-11-07T15:20:28.835Z,5.20
2018-11-07T15:23:00.850Z,5.83
2018-11-07T15:25:32.365Z,5.13
2018-11-07T15:28:04.499Z,5.70
2018-11-07T15:30:36.379Z,5.57
2018-11-07T15:33:07.842Z,5.20
2018-11-07T15:35:41.872Z,5.07
2018-11-07T15:38:13.886Z,4.77
2018-11-07T15:40:45.127Z,5.10
2018-11-07T15:43:16.249Z,4.97
2018-11-07T15:45:49.325Z,5.40
2018-11-07T15:48:20.412Z,5.67
2018-11-07T15:51:08.464Z,5.00
2018-11-07T15:53:39.668Z,5.40
2018-11-07T15:56:11.173Z,5.57
2018-11-07T15:58:42.279Z,6.40
2018-11-07T16:01:14.404Z,5.60
2018-11-07T16:03:51.689Z,5.97
2018-11-07T16:06:23.007Z,5.90
2018-11-07T16:08:55.237Z,6.40
2018-11-07T16:11:30.874Z,5.80
2018-11-07T16:14:03.276Z,6.20
2018-11-07T16:16:40.317Z,6.20
2018-11-07T16:19:12.703Z,6.60
2018-11-07T16:21:57.049Z,6.40
2018-11-07T16:24:28.126Z,6.83
2018-11-07T16:26:59.135Z,6.13
2018-11-07T16:29:30.460Z,6.10
2018-11-07T16:32:02.433Z,6.67
2018-11-07T16:34:33.548Z,6.30
2018-11-07T16:37:11.903Z,6.80
2018-11-07T16:39:45.045Z,6.40
2018-11-07T16:42:17.595Z,6.20
2018-11-07T16:44:48.707Z,6.33
2018-11-07T16:47:20.823Z,6.77
2018-11-07T16:49:51.869Z,6.73
2018-11-07T16:52:31.412Z,6.67
2018-11-07T16:55:02.860Z,6.10
2018-11-07T16:57:35.499Z,6.97
2018-11-07T17:00:09.197Z,7.20
2018-11-07T17:02:42.556Z,7.20
2018-11-07T17:05:16.699Z,7.47
2018-11-07T17:07:49.026Z,7.20
2018-11-07T17:10:20.629Z,7.43
2018-11-07T17:12:53.062Z,7.40
2018-11-07T17:15:25.138Z,8.33
2018-11-07T17:17:56.514Z,7.70
2018-11-07T17:20:29.919Z,7.60
2018-11-07T17:23:03.449Z,7.30
2018-11-07T17:25:35.876Z,7.60
2018-11-07T17:28:08.565Z,8.10
2018-11-07T17:30:42.164Z,8.57
2018-11-07T17:33:13.655Z,8.87
2018-11-07T17:35:48.948Z,8.87
2018-11-07T17:38:21.182Z,9.00
2018-11-07T17:40:58.001Z,8.87
2018-11-07T17:43:32.108Z,8.70
2018-11-07T17:46:03.692Z,10.00
2018-11-07T17:48:35.529Z,12.83
2018-11-07T17:51:08.538Z,12.30
2018-11-07T17:53:39.716Z,13.17
2018-11-07T17:56:10.802Z,12.07
2018-11-07T17:58:43.854Z,12.97
2018-11-07T18:01:16.349Z,11.53
2018-11-07T18:03:48.862Z,11.33
2018-11-07T18:06:28.253Z,11.20
2018-11-07T18:09:01.167Z,10.90
2018-11-07T18:11:32.446Z,10.40
2018-11-07T18:14:04.563Z,10.67
2018-11-07T18:16:41.400Z,10.03
2018-11-07T18:19:14.790Z,9.97
2018-11-07T18:21:47.217Z,9.83
2018-11-07T18:24:24.336Z,10.03
2018-11-07T18:26:55.351Z,10.10
2018-11-07T18:29:28.537Z,9.43
2018-11-07T18:32:02.155Z,9.67
2018-11-07T18:34:35.816Z,9.53
2018-11-07T18:37:07.838Z,8.90
2018-11-07T18:39:39.777Z,11.13
2018-11-07T18:42:11.835Z,14.60
2018-11-07T18:44:43.888Z,13.33
2018-11-07T18:47:14.981Z,18.47
2018-11-07T18:49:46.038Z,21.80
2018-11-07T18:52:19.473Z,25.40
2018-11-07T18:54:50.564Z,20.20
2018-11-07T18:57:21.779Z,15.67
2018-11-07T18:59:52.943Z,14.20
2018-11-07T19:02:25.008Z,14.00
2018-11-07T19:04:56.983Z,12.17
2018-11-07T19:07:28.143Z,10.73
2018-11-07T19:10:00.512Z,10.17
2018-11-07T19:12:35.961Z,9.90
2018-11-07T19:15:17.049Z,9.77
2018-11-07T19:17:52.666Z,9.63
2018-11-07T19:20:27.788Z,9.20
2018-11-07T19:23:01.101Z,9.33
2018-11-07T19:25:33.059Z,8.73
2018-11-07T19:28:05.092Z,8.57
2018-11-07T19:30:37.150Z,9.03
2018-11-07T19:33:09.083Z,9.27
2018-11-07T19:35:41.256Z,8.97
2018-11-07T19:38:12.857Z,8.77
2018-11-07T19:40:44.877Z,9.17
2018-11-07T19:43:16.036Z,8.53
2018-11-07T19:45:47.124Z,9.07
2018-11-07T19:48:18.840Z,9.20
2018-11-07T19:50:54.358Z,9.00
2018-11-07T19:53:26.792Z,8.80
2018-11-07T19:56:00.506Z,8.70
2018-11-07T19:58:31.680Z,9.77
2018-11-07T20:01:03.741Z,9.00
2018-11-07T20:03:36.188Z,9.27
2018-11-07T20:06:07.502Z,9.33
2018-11-07T20:08:38.824Z,10.23
2018-11-07T20:11:10.435Z,8.80
2018-11-07T20:13:43.345Z,8.37
2018-11-07T20:16:14.992Z,9.33
2018-11-07T20:18:46.216Z,8.90
2018-11-07T20:21:19.438Z,8.80
2018-11-07T20:23:51.808Z,9.20
2018-11-07T20:26:24.726Z,9.13
2018-11-07T20:28:57.859Z,8.63
2018-11-07T20:31:28.896Z,8.77
2018-11-07T20:34:00.927Z,8.57
2018-11-07T20:36:32.035Z,8.40
2018-11-07T20:39:04.217Z,8.47
2018-11-07T20:41:35.752Z,8.50
2018-11-07T20:44:07.185Z,8.03
2018-11-07T20:46:38.669Z,8.07
2018-11-07T20:49:10.737Z,7.70
2018-11-07T20:51:41.775Z,8.00
2018-11-07T20:54:25.114Z,7.90
2018-11-07T20:56:57.279Z,7.87
2018-11-07T20:59:29.380Z,7.67
2018-11-07T21:02:00.570Z,8.57
2018-11-07T21:04:31.901Z,8.37
2018-11-07T21:07:04.106Z,8.23
2018-11-07T21:09:35.472Z,8.27
2018-11-07T21:12:07.343Z,8.90
2018-11-07T21:14:39.985Z,7.90
2018-11-07T21:17:12.317Z,8.00
2018-11-07T21:19:43.405Z,8.03
2018-11-07T21:22:14.906Z,7.27
2018-11-07T21:24:48.048Z,8.33
2018-11-07T21:27:19.814Z,8.20
2018-11-07T21:29:51.137Z,8.03
2018-11-07T21:32:23.059Z,7.73
2018-11-07T21:34:54.310Z,8.07
2018-11-07T21:37:26.289Z,7.70
2018-11-07T21:39:57.406Z,7.07
2018-11-07T21:42:30.663Z,7.43
2018-11-07T21:45:01.702Z,8.03
2018-11-07T21:47:32.745Z,8.60
2018-11-07T21:50:03.739Z,7.57
2018-11-07T21:52:34.829Z,7.87
2018-11-07T21:55:06.541Z,7.67
2018-11-07T21:57:37.914Z,9.13
2018-11-07T22:00:18.125Z,7.93
2018-11-07T22:02:52.573Z,8.50
2018-11-07T22:05:23.970Z,8.40
2018-11-07T22:07:54.997Z,8.23
2018-11-07T22:10:27.568Z,8.20
2018-11-07T22:12:59.525Z,7.87
2018-11-07T22:15:32.808Z,7.57
2018-11-07T22:18:05.225Z,7.27
2018-11-07T22:20:37.642Z,7.57
2018-11-07T22:23:08.759Z,7.90
2018-11-07T22:25:40.224Z,7.77
2018-11-07T22:28:11.668Z,8.27
2018-11-07T22:30:42.682Z,8.23
2018-11-07T22:33:14.269Z,7.67
2018-11-07T22:35:47.120Z,8.23
2018-11-07T22:38:18.793Z,7.17
2018-11-07T22:40:49.719Z,8.30
2018-11-07T22:43:21.703Z,7.90
2018-11-07T22:45:52.889Z,7.10
2018-11-07T22:48:24.494Z,7.97
2018-11-07T22:50:56.006Z,9.30
2018-11-07T22:53:28.411Z,10.97
2018-11-07T22:55:59.601Z,10.17
2018-11-07T22:58:31.050Z,15.37
2018-11-07T23:01:20.531Z,12.53
2018-11-07T23:03:53.099Z,16.97
2018-11-07T23:06:24.945Z,18.23
2018-11-07T23:08:56.808Z,11.77
2018-11-07T23:11:27.857Z,8.27
2018-11-07T23:13:59.636Z,7.13
2018-11-07T23:16:32.036Z,7.60
2018-11-07T23:19:03.118Z,7.90
2018-11-07T23:21:34.304Z,7.40
2018-11-07T23:24:05.807Z,8.00
2018-11-07T23:26:36.924Z,7.73
2018-11-07T23:29:08.451Z,7.60
2018-11-07T23:31:39.472Z,7.30
2018-11-07T23:34:11.024Z,7.50
2018-11-07T23:36:42.202Z,6.93
2018-11-07T23:39:13.217Z,6.40
2018-11-07T23:41:44.235Z,7.00
2018-11-07T23:44:15.337Z,8.30
2018-11-07T23:46:48.042Z,7.30
2018-11-07T23:49:19.271Z,7.67
2018-11-07T23:51:52.095Z,6.80
2018-11-07T23:54:24.652Z,7.03
2018-11-07T23:56:56.494Z,8.07
2018-11-07T23:59:27.525Z,7.57
